Time;durP1;ratioP1;P1;durP2;ratioP2;P2;SDS_P1;SDS_P2;PMS_P1;PMS_P2;Temp;Humidity;BMP_temperature;BMP_pressure;BME280_temperature;BME280_humidity;BME280_pressure;Samples;Min_cycle;Max_cycle;Signal;HPM_P1;HPM_P2
2022/07/28 00:02:22;;;;;;;13.57;6.75;;;;;;;24.73;63.68;94745.63;5012714;28;20239;-77
2022/07/28 00:04:47;;;;;;;13.35;7.22;;;;;;;24.59;64.32;94739.47;5012649;28;20697;-77
2022/07/28 00:07:13;;;;;;;12.52;7.05;;;;;;;24.41;64.84;94735.78;5012351;28;20697;-77
2022/07/28 00:09:38;;;;;;;14.32;8.43;;;;;;;24.50;64.51;94752.84;5012318;28;20173;-77
2022/07/28 00:12:04;;;;;;;11.48;6.30;;;;;;;24.48;64.73;94751.53;5012142;28;20234;-77
2022/07/28 00:14:29;;;;;;;9.40;5.85;;;;;;;24.50;64.75;94755.53;5012442;28;20176;-77
2022/07/28 00:16:55;;;;;;;7.72;5.85;;;;;;;24.53;64.83;94763.00;5012571;28;20199;-77
2022/07/28 00:19:20;;;;;;;10.40;5.72;;;;;;;24.57;65.31;94774.75;5012266;28;20183;-77
2022/07/28 00:21:46;;;;;;;13.38;5.90;;;;;;;24.54;67.01;94782.66;5012335;28;20637;-77
2022/07/28 00:24:12;;;;;;;17.27;6.97;;;;;;;24.39;67.83;94784.53;5012202;28;20173;-77
2022/07/28 00:26:37;;;;;;;15.13;7.03;;;;;;;24.31;70.98;94776.34;5012129;28;20270;-77
2022/07/28 00:29:04;;;;;;;23.52;7.75;;;;;;;24.21;73.80;94753.16;5012098;28;20210;-77
2022/07/28 00:31:30;;;;;;;21.80;8.13;;;;;;;24.12;75.97;94724.53;5012114;28;20176;-77
2022/07/28 00:33:55;;;;;;;16.60;7.43;;;;;;;23.88;75.76;94720.09;5011936;28;20173;-77
2022/07/28 00:36:21;;;;;;;17.40;7.47;;;;;;;23.68;76.49;94718.59;5011711;28;20175;-77
2022/07/28 00:38:46;;;;;;;8.15;6.15;;;;;;;23.51;76.75;94709.50;5011524;28;20180;-77
2022/07/28 00:41:12;;;;;;;19.33;7.05;;;;;;;23.32;78.62;94690.72;5012075;28;20676;-77
2022/07/28 00:43:37;;;;;;;9.40;6.22;;;;;;;23.38;78.90;94686.84;5011872;28;20564;-77
2022/07/28 00:46:03;;;;;;;10.98;6.53;;;;;;;23.27;78.87;94710.38;5011607;28;20706;-77
2022/07/28 00:48:29;;;;;;;9.43;6.50;;;;;;;22.81;81.28;94707.63;5011872;28;20711;-77
2022/07/28 00:50:54;;;;;;;9.63;7.50;;;;;;;22.57;84.18;94722.97;5011605;28;20176;-77
2022/07/28 00:53:21;;;;;;;10.82;6.78;;;;;;;22.49;84.78;94751.22;5011832;28;20187;-77
2022/07/28 00:55:47;;;;;;;8.65;7.47;;;;;;;22.00;86.65;94751.53;5012399;28;20580;-77
2022/07/28 00:58:13;;;;;;;10.77;7.55;;;;;;;22.06;87.19;94742.34;5012007;28;20180;-77
2022/07/28 01:00:38;;;;;;;12.73;7.43;;;;;;;22.13;86.67;94742.03;5012213;28;20172;-77
2022/07/28 01:03:05;;;;;;;10.82;6.93;;;;;;;22.19;86.27;94759.66;5012077;28;20157;-77
2022/07/28 01:05:51;;;;;;;10.35;7.10;;;;;;;22.26;86.10;94762.78;5012170;28;20196;-78
2022/07/28 01:08:32;;;;;;;8.57;6.50;;;;;;;22.17;85.04;94770.66;5011906;28;20234;-78
2022/07/28 01:11:10;;;;;;;9.15;7.25;;;;;;;22.28;85.75;94784.75;5012148;28;20307;-77
2022/07/28 01:14:07;;;;;;;10.30;7.05;;;;;;;22.36;84.03;94784.13;4994227;28;20176;-78
2022/07/28 01:16:41;;;;;;;12.60;9.52;;;;;;;22.45;84.51;94797.72;5011913;28;20168;-77
2022/07/28 01:19:17;;;;;;;12.52;8.73;;;;;;;22.52;85.10;94780.16;5011963;28;20172;-78
2022/07/28 01:21:45;;;;;;;10.70;6.57;;;;;;;22.64;85.01;94777.09;5011961;28;20203;-78
2022/07/28 01:24:26;;;;;;;9.35;7.60;;;;;;;22.69;85.85;94760.91;5011798;28;20568;-78
2022/07/28 01:27:01;;;;;;;10.45;7.63;;;;;;;22.79;86.42;94763.47;5011545;28;20200;-77
2022/07/28 01:29:43;;;;;;;11.68;8.15;;;;;;;22.89;86.55;94757.97;5011774;28;20633;-77
2022/07/28 01:32:29;;;;;;;9.05;6.75;;;;;;;22.85;85.94;94740.84;5011555;28;20165;-77
2022/07/28 01:35:17;;;;;;;10.57;8.15;;;;;;;22.98;86.38;94752.75;5011311;28;20701;-77
2022/07/28 01:37:46;;;;;;;9.13;6.88;;;;;;;23.02;86.47;94751.06;5000692;28;20669;-78
2022/07/28 01:40:16;;;;;;;10.60;7.53;;;;;;;23.07;85.97;94747.53;4993656;28;20611;-78
2022/07/28 01:42:50;;;;;;;9.05;7.38;;;;;;;23.07;86.49;94751.00;5011408;28;20180;-78
2022/07/28 01:45:18;;;;;;;9.68;6.97;;;;;;;23.09;85.97;94750.72;5011257;28;20534;-78
2022/07/28 01:47:45;;;;;;;8.52;6.72;;;;;;;23.10;86.46;94749.59;5011268;28;20175;-77
2022/07/28 01:50:12;;;;;;;10.00;7.45;;;;;;;22.99;86.79;94743.63;5015171;28;20222;-77
2022/07/28 01:52:40;;;;;;;9.20;7.28;;;;;;;22.91;86.96;94739.69;5015332;28;20166;-77
2022/07/28 01:55:07;;;;;;;8.77;7.05;;;;;;;22.92;87.05;94753.91;5015418;28;20194;-77
2022/07/28 01:57:34;;;;;;;8.82;7.78;;;;;;;22.88;87.56;94747.53;5015212;28;20199;-77
2022/07/28 02:00:01;;;;;;;10.98;7.47;;;;;;;22.93;86.74;94753.59;5015047;28;20176;-77
2022/07/28 02:02:29;;;;;;;18.15;11.38;;;;;;;22.85;87.13;94743.53;5014916;28;20180;-77
2022/07/28 02:04:57;;;;;;;13.57;8.98;;;;;;;22.92;87.60;94754.69;5014572;28;20169;-77
2022/07/28 02:07:25;;;;;;;15.38;8.93;;;;;;;22.88;87.37;94755.59;5014591;28;20192;-77
2022/07/28 02:09:53;;;;;;;21.50;15.40;;;;;;;22.92;86.98;94745.84;5014766;28;20184;-78
2022/07/28 02:12:19;;;;;;;11.75;9.02;;;;;;;22.99;86.36;94764.28;5015177;28;20177;-77
2022/07/28 02:14:48;;;;;;;17.98;12.02;;;;;;;22.94;86.40;94765.94;5014876;28;20173;-78
2022/07/28 02:17:18;;;;;;;12.93;9.48;;;;;;;22.95;86.59;94775.59;5014742;28;20160;-78
2022/07/28 02:19:46;;;;;;;10.98;8.82;;;;;;;22.89;86.86;94770.59;5014797;28;20177;-77
2022/07/28 02:22:12;;;;;;;12.27;7.38;;;;;;;22.89;86.81;94776.78;5014846;28;20254;-78
2022/07/28 02:24:40;;;;;;;9.40;6.90;;;;;;;22.70;86.87;94732.19;5014963;28;20171;-78
2022/07/28 02:27:12;;;;;;;12.88;8.27;;;;;;;22.96;86.42;94768.34;5014791;28;20291;-78
2022/07/28 02:29:54;;;;;;;11.80;8.60;;;;;;;22.92;85.80;94776.19;5014730;28;20633;-78
2022/07/28 02:32:46;;;;;;;16.42;11.38;;;;;;;22.92;85.09;94776.19;5014922;28;20179;-78
2022/07/28 02:35:37;;;;;;;17.98;10.75;;;;;;;22.91;85.29;94777.28;5011321;28;20188;-78
2022/07/28 02:38:09;;;;;;;13.50;9.95;;;;;;;22.94;84.32;94767.84;5014616;28;20153;-77
2022/07/28 02:40:36;;;;;;;15.88;10.52;;;;;;;22.88;83.94;94767.13;5014366;28;20165;-77
2022/07/28 02:43:07;;;;;;;17.20;12.05;;;;;;;22.79;84.53;94739.31;5014067;28;20172;-77
2022/07/28 02:45:35;;;;;;;10.88;8.07;;;;;;;22.90;84.14;94756.91;5013794;28;20562;-77
2022/07/28 02:48:04;;;;;;;14.93;10.32;;;;;;;22.89;83.57;94751.81;5014392;28;20168;-78
2022/07/28 02:50:29;;;;;;;9.98;7.25;;;;;;;22.60;83.78;94776.03;5014461;28;20254;-78
2022/07/28 02:52:59;;;;;;;9.88;7.40;;;;;;;22.30;84.36;94776.44;5014354;28;20257;-78
2022/07/28 02:55:26;;;;;;;16.25;9.70;;;;;;;22.32;85.93;94774.22;5014404;28;20192;-78
2022/07/28 02:57:52;;;;;;;12.05;8.48;;;;;;;22.28;86.06;94767.84;5014262;28;20179;-78
2022/07/28 03:00:18;;;;;;;14.95;9.13;;;;;;;22.23;86.34;94763.34;5013399;28;20177;-78
2022/07/28 03:02:47;;;;;;;11.63;8.27;;;;;;;22.28;86.12;94771.34;5014088;28;20621;-77
2022/07/28 03:05:16;;;;;;;10.77;8.35;;;;;;;22.23;86.59;94766.03;5014168;28;20642;-77
2022/07/28 03:07:42;;;;;;;12.60;8.82;;;;;;;22.19;85.80;94751.59;5013867;28;20188;-77
2022/07/28 03:10:15;;;;;;;16.83;8.27;;;;;;;22.33;85.63;94771.28;5013540;28;20597;-77
2022/07/28 03:12:41;;;;;;;12.27;7.20;;;;;;;22.33;85.83;94765.09;5013839;28;20199;-77
2022/07/28 03:15:07;;;;;;;11.88;8.10;;;;;;;22.43;85.62;94765.00;5013855;28;20614;-77
2022/07/28 03:17:32;;;;;;;11.10;7.80;;;;;;;22.50;84.54;94749.34;5013606;28;20172;-77
2022/07/28 03:19:58;;;;;;;11.00;7.97;;;;;;;22.52;85.50;94756.03;5013775;28;20234;-77
2022/07/28 03:22:23;;;;;;;9.93;6.93;;;;;;;22.28;85.68;94741.84;5013682;28;20176;-77
2022/07/28 03:24:52;;;;;;;9.02;6.97;;;;;;;22.32;85.51;94752.78;5013487;28;20645;-77
2022/07/28 03:27:23;;;;;;;11.77;6.97;;;;;;;22.17;85.14;94749.19;4995792;28;20278;-77
2022/07/28 03:29:53;;;;;;;8.77;7.05;;;;;;;22.01;86.19;94745.09;5012663;28;20259;-77
2022/07/28 03:32:21;;;;;;;8.93;6.90;;;;;;;21.89;86.99;94736.59;5012648;28;20188;-77
2022/07/28 03:34:47;;;;;;;10.70;8.10;;;;;;;21.54;88.89;94734.25;5012691;28;20181;-77
2022/07/28 03:37:17;;;;;;;11.02;7.15;;;;;;;21.38;89.73;94737.09;5012586;28;20173;-77
2022/07/28 03:39:47;;;;;;;11.85;8.70;;;;;;;21.47;90.41;94734.59;5013171;28;20212;-77
2022/07/28 03:42:17;;;;;;;10.82;7.82;;;;;;;21.27;91.43;94726.75;5015446;28;20184;-77
2022/07/28 03:44:45;;;;;;;11.75;8.38;;;;;;;21.29;91.86;94725.38;5013293;28;20195;-77
2022/07/28 03:47:10;;;;;;;10.35;8.13;;;;;;;21.24;92.96;94730.78;5013324;28;20251;-78
2022/07/28 03:49:36;;;;;;;10.93;8.90;;;;;;;21.11;94.15;94723.34;5013417;28;20650;-77
2022/07/28 03:52:01;;;;;;;12.75;9.68;;;;;;;21.07;95.03;94717.78;5011557;28;20176;-77
2022/07/28 03:54:27;;;;;;;11.75;8.80;;;;;;;21.08;94.62;94691.81;4995238;28;20188;-77
2022/07/28 03:56:52;;;;;;;14.27;10.00;;;;;;;21.04;95.63;94696.09;5005397;28;20177;-77
2022/07/28 03:59:18;;;;;;;10.50;8.73;;;;;;;21.14;95.56;94698.69;5000183;28;20197;-77
2022/07/28 04:01:44;;;;;;;12.18;9.05;;;;;;;21.21;95.06;94723.31;5001194;28;20177;-77
2022/07/28 04:04:09;;;;;;;10.93;8.85;;;;;;;21.17;94.10;94700.84;5004814;28;20355;-77
2022/07/28 04:06:35;;;;;;;14.85;10.45;;;;;;;21.49;93.65;94726.28;5007368;28;20200;-77
2022/07/28 04:09:00;;;;;;;13.40;9.20;;;;;;;21.61;93.62;94732.06;4994994;28;20192;-77
2022/07/28 04:11:26;;;;;;;12.48;8.70;;;;;;;21.66;92.05;94737.38;5011919;28;20260;-77
2022/07/28 04:13:51;;;;;;;17.45;9.63;;;;;;;21.72;93.08;94746.97;5012016;28;20940;-77
2022/07/28 04:16:16;;;;;;;10.43;8.18;;;;;;;21.81;92.34;94732.66;5012127;28;20668;-77
2022/07/28 04:18:42;;;;;;;12.50;8.30;;;;;;;21.79;91.36;94734.03;5011861;28;20282;-77
2022/07/28 04:21:07;;;;;;;13.73;8.85;;;;;;;21.83;90.81;94718.97;5012273;28;20192;-77
2022/07/28 04:23:33;;;;;;;10.10;8.10;;;;;;;21.88;91.24;94729.63;5012317;28;20226;-77
2022/07/28 04:25:58;;;;;;;10.70;8.30;;;;;;;21.67;91.48;94704.16;5012193;28;20216;-77
2022/07/28 04:28:24;;;;;;;10.80;8.35;;;;;;;22.04;90.67;94763.31;5012182;28;20645;-77
2022/07/28 04:30:49;;;;;;;11.20;8.63;;;;;;;22.17;90.06;94767.16;5012585;28;20176;-77
2022/07/28 04:33:17;;;;;;;11.77;9.00;;;;;;;22.23;89.17;94757.97;5012480;28;20176;-77
2022/07/28 04:35:42;;;;;;;12.50;9.18;;;;;;;22.19;88.48;94763.13;5012610;28;20169;-77
2022/07/28 04:38:08;;;;;;;10.85;8.88;;;;;;;21.88;89.13;94783.25;5011696;28;20192;-77
2022/07/28 04:40:33;;;;;;;12.80;9.18;;;;;;;21.37;91.07;94764.94;5012091;28;20238;-78
2022/07/28 04:42:59;;;;;;;13.07;9.13;;;;;;;21.29;92.98;94776.25;5013573;28;21330;-77
2022/07/28 04:45:25;;;;;;;15.00;9.43;;;;;;;21.45;93.19;94764.34;5011632;28;20180;-76
2022/07/28 04:47:50;;;;;;;10.80;8.30;;;;;;;21.59;89.73;94777.09;5023093;28;20198;-75
2022/07/28 04:50:19;;;;;;;11.02;8.95;;;;;;;21.43;89.35;94761.16;5032373;28;20199;-76
2022/07/28 04:52:48;;;;;;;11.85;8.43;;;;;;;21.49;90.21;94772.63;5032167;28;20183;-76
2022/07/28 04:55:13;;;;;;;20.48;11.80;;;;;;;21.82;90.85;94797.78;5031931;28;20349;-76
2022/07/28 04:57:39;;;;;;;14.38;9.30;;;;;;;21.97;90.71;94808.38;5031867;28;20645;-76
2022/07/28 05:00:13;;;;;;;14.40;10.57;;;;;;;22.05;90.54;94794.41;5030729;28;20164;-76
2022/07/28 05:02:39;;;;;;;42.90;28.08;;;;;;;22.04;90.04;94768.66;5012742;28;20725;-76
2022/07/28 05:05:06;;;;;;;13.23;9.48;;;;;;;22.20;89.90;94778.13;5030628;28;20314;-76
2022/07/28 05:07:31;;;;;;;12.48;9.38;;;;;;;22.32;89.08;94771.56;5030403;28;20191;-76
2022/07/28 05:09:57;;;;;;;11.10;9.13;;;;;;;22.35;89.14;94774.47;5030172;28;20179;-77
2022/07/28 05:12:22;;;;;;;9.93;8.55;;;;;;;22.27;87.27;94769.75;5030376;28;20667;-76
2022/07/28 05:14:47;;;;;;;17.92;12.85;;;;;;;22.03;88.04;94740.25;5030604;28;20184;-76
2022/07/28 05:17:13;;;;;;;15.60;9.00;;;;;;;22.29;88.11;94790.91;5030928;28;20167;-76
2022/07/28 05:19:39;;;;;;;12.98;10.57;;;;;;;22.34;88.14;94793.53;5030783;28;20218;-76
2022/07/28 05:22:05;;;;;;;12.20;9.27;;;;;;;22.39;87.78;94793.50;5030541;28;20254;-76
2022/07/28 05:24:31;;;;;;;13.18;9.30;;;;;;;22.50;88.15;94801.13;5030402;28;20171;-76
2022/07/28 05:26:56;;;;;;;15.90;10.27;;;;;;;22.61;87.85;94804.47;5030504;28;20281;-76
2022/07/28 05:29:22;;;;;;;15.55;9.63;;;;;;;22.57;88.27;94790.81;5030673;28;20174;-76
2022/07/28 05:31:47;;;;;;;13.85;9.52;;;;;;;22.47;87.17;94811.63;5030619;28;20190;-76
2022/07/28 05:34:13;;;;;;;13.63;8.75;;;;;;;22.42;87.89;94806.31;5012950;28;20175;-76
2022/07/28 05:36:38;;;;;;;12.63;9.70;;;;;;;22.52;88.13;94806.19;5030422;28;20238;-76
2022/07/28 05:39:03;;;;;;;11.52;8.95;;;;;;;22.59;88.18;94798.59;5012723;28;20168;-76
2022/07/28 05:41:29;;;;;;;13.63;9.25;;;;;;;22.49;86.00;94799.50;5030493;28;20179;-76
2022/07/28 05:43:54;;;;;;;14.82;10.15;;;;;;;22.47;87.09;94809.75;5030470;28;20183;-76
2022/07/28 05:46:20;;;;;;;15.10;9.57;;;;;;;22.56;88.30;94801.88;5030266;28;20192;-76
2022/07/28 05:48:45;;;;;;;17.23;9.82;;;;;;;22.73;89.00;94804.88;5030506;28;20223;-76
2022/07/28 05:51:11;;;;;;;12.02;8.82;;;;;;;22.92;88.12;94786.13;5030471;28;20258;-76
2022/07/28 05:53:36;;;;;;;11.20;9.23;;;;;;;23.00;85.68;94798.13;5030598;28;20259;-76
2022/07/28 05:56:02;;;;;;;14.63;11.27;;;;;;;23.08;84.75;94803.63;5030299;28;20168;-76
2022/07/28 05:58:28;;;;;;;11.82;9.25;;;;;;;23.19;84.94;94797.00;5030107;28;20653;-76
2022/07/28 06:00:57;;;;;;;13.00;9.90;;;;;;;23.33;85.05;94784.47;5030331;28;20168;-76
2022/07/28 06:03:22;;;;;;;12.82;9.27;;;;;;;23.42;85.94;94794.53;5030343;28;20606;-76
2022/07/28 06:05:49;;;;;;;13.00;9.82;;;;;;;23.48;85.36;94796.84;5030166;28;20196;-76
2022/07/28 06:08:14;;;;;;;12.88;9.15;;;;;;;23.54;81.86;94797.59;5030119;28;20664;-76
2022/07/28 06:11:00;;;;;;;12.60;9.57;;;;;;;23.58;82.85;94791.34;5029984;28;20215;-76
2022/07/28 06:13:26;;;;;;;14.30;9.50;;;;;;;23.47;83.10;94795.25;5030205;28;20777;-76
2022/07/28 06:15:51;;;;;;;11.95;9.93;;;;;;;23.40;84.51;94789.47;5030248;28;20254;-76
2022/07/28 06:18:21;;;;;;;12.82;9.70;;;;;;;23.36;85.46;94755.38;5030193;28;20640;-76
2022/07/28 06:20:47;;;;;;;11.20;9.05;;;;;;;23.72;84.79;94783.31;5030164;28;20238;-76
2022/07/28 06:23:15;;;;;;;13.00;9.95;;;;;;;23.94;83.31;94774.63;5030052;28;20168;-76
2022/07/28 06:25:41;;;;;;;12.00;9.23;;;;;;;24.15;79.53;94781.19;5012115;28;20176;-76
2022/07/28 06:28:06;;;;;;;11.18;8.25;;;;;;;24.28;78.47;94791.22;5030024;28;20183;-76
2022/07/28 06:30:32;;;;;;;12.45;9.27;;;;;;;23.92;78.04;94803.69;5029845;28;20171;-76
2022/07/28 06:32:57;;;;;;;12.00;8.85;;;;;;;24.02;79.59;94811.59;5030084;28;20672;-76
2022/07/28 06:35:23;;;;;;;14.50;9.98;;;;;;;24.23;80.92;94801.25;5030979;28;20609;-76
2022/07/28 06:37:51;;;;;;;11.82;8.98;;;;;;;24.43;80.21;94801.69;5033627;28;20254;-76
2022/07/28 06:40:18;;;;;;;14.70;9.13;;;;;;;24.63;79.27;94800.50;5033646;28;20256;-76
2022/07/28 06:42:44;;;;;;;16.98;10.60;;;;;;;24.84;76.99;94808.94;5033418;28;20269;-76
2022/07/28 06:45:11;;;;;;;13.27;9.50;;;;;;;25.07;76.96;94802.56;5033406;28;20178;-76
2022/07/28 06:47:37;;;;;;;18.50;9.82;;;;;;;25.28;76.20;94807.47;5033236;28;20567;-76
2022/07/28 06:50:03;;;;;;;11.70;9.15;;;;;;;25.48;73.36;94815.13;5033356;28;20258;-76
2022/07/28 06:52:28;;;;;;;13.60;9.32;;;;;;;25.64;72.80;94804.78;5033445;28;20171;-76
2022/07/28 06:54:54;;;;;;;13.05;9.07;;;;;;;25.81;70.81;94803.00;5033213;28;20229;-76
2022/07/28 06:57:20;;;;;;;13.27;9.35;;;;;;;25.95;69.38;94804.84;5033595;28;20172;-76
2022/07/28 06:59:47;;;;;;;12.80;9.82;;;;;;;26.12;71.86;94776.03;5033580;28;20179;-76
2022/07/28 07:02:14;;;;;;;12.90;9.68;;;;;;;26.75;67.77;94809.97;5033638;28;20291;-76
2022/07/28 07:04:39;;;;;;;12.95;8.93;;;;;;;27.16;66.15;94819.63;5033359;28;20164;-77
2022/07/28 07:07:05;;;;;;;14.65;10.07;;;;;;;27.11;67.10;94779.25;5033146;28;20203;-77
2022/07/28 07:09:31;;;;;;;13.25;9.48;;;;;;;27.49;66.40;94815.38;5033050;28;20168;-77
2022/07/28 07:11:57;;;;;;;13.68;10.30;;;;;;;27.64;66.58;94814.13;5015187;28;20172;-77
2022/07/28 07:14:22;;;;;;;13.27;9.43;;;;;;;27.70;65.28;94818.25;5033039;28;20190;-77
2022/07/28 07:16:48;;;;;;;21.45;14.00;;;;;;;27.78;63.77;94820.97;5032892;28;20561;-77
2022/07/28 07:19:13;;;;;;;11.65;10.23;;;;;;;27.79;63.97;94821.75;5021774;28;20661;-77
2022/07/28 07:21:39;;;;;;;15.90;10.23;;;;;;;27.75;64.93;94818.91;5013257;28;20185;-77
2022/07/28 07:24:04;;;;;;;14.85;10.02;;;;;;;27.48;64.14;94800.28;5013114;28;20630;-77
2022/07/28 07:26:30;;;;;;;26.85;18.70;;;;;;;27.45;63.30;94825.25;5013055;28;20208;-77
2022/07/28 07:28:55;;;;;;;18.42;12.27;;;;;;;27.22;65.29;94818.38;5013145;28;20182;-77
2022/07/28 07:31:21;;;;;;;16.90;11.02;;;;;;;27.11;67.17;94808.97;5012960;28;20566;-77
2022/07/28 07:33:46;;;;;;;13.23;11.05;;;;;;;27.25;68.05;94823.16;5013050;28;20172;-77
2022/07/28 07:36:11;;;;;;;13.93;10.30;;;;;;;27.46;66.35;94820.63;5012989;28;20588;-77
2022/07/28 07:38:38;;;;;;;14.63;11.38;;;;;;;27.35;65.23;94828.25;5013084;28;20195;-77
2022/07/28 07:41:03;;;;;;;14.00;10.88;;;;;;;27.19;65.30;94835.22;5012880;28;20192;-77
2022/07/28 07:43:29;;;;;;;16.02;11.50;;;;;;;26.83;64.57;94833.53;5012948;28;20608;-77
2022/07/28 07:45:54;;;;;;;14.07;11.43;;;;;;;26.85;67.14;94833.22;5012686;28;20204;-77
2022/07/28 07:48:19;;;;;;;12.75;10.20;;;;;;;27.17;66.36;94837.44;5012475;28;20263;-77
2022/07/28 07:50:45;;;;;;;12.02;10.07;;;;;;;27.32;64.77;94839.72;5012421;28;20680;-77
2022/07/28 07:53:10;;;;;;;13.25;9.20;;;;;;;27.55;63.11;94859.31;5012558;28;20645;-76
2022/07/28 07:55:36;;;;;;;13.20;10.18;;;;;;;27.63;64.26;94839.59;5012664;28;20630;-77
2022/07/28 07:58:02;;;;;;;13.70;10.18;;;;;;;27.86;64.56;94853.75;5012448;28;20731;-77
2022/07/28 08:00:28;;;;;;;11.23;9.82;;;;;;;27.87;63.87;94853.44;5012346;28;20590;-77
2022/07/28 08:02:53;;;;;;;12.32;9.77;;;;;;;27.86;64.02;94864.56;5011652;28;20183;-77
2022/07/28 08:05:19;;;;;;;16.80;10.27;;;;;;;27.78;63.02;94866.16;5012167;28;20176;-78
2022/07/28 08:07:44;;;;;;;13.85;8.95;;;;;;;27.62;61.70;94865.84;5012270;28;20246;-78
2022/07/28 08:10:10;;;;;;;16.95;11.70;;;;;;;27.58;62.10;94858.72;5012572;28;20164;-78
2022/07/28 08:12:35;;;;;;;12.60;9.63;;;;;;;27.41;60.42;94856.75;5011783;28;20603;-78
2022/07/28 08:15:02;;;;;;;10.85;8.55;;;;;;;27.22;61.57;94840.81;4994791;28;20259;-77
2022/07/28 08:17:28;;;;;;;10.73;8.75;;;;;;;27.35;63.52;94860.69;5012792;28;20950;-76
2022/07/28 08:19:54;;;;;;;12.05;9.32;;;;;;;27.27;61.47;94858.78;5012445;28;20226;-80
2022/07/28 08:22:19;;;;;;;12.20;9.10;;;;;;;27.28;62.86;94854.97;5012584;28;20180;-79
2022/07/28 08:24:45;;;;;;;18.30;14.20;;;;;;;27.30;61.63;94858.97;5012674;28;20234;-77
2022/07/28 08:27:10;;;;;;;14.13;9.65;;;;;;;27.13;62.35;94845.41;5011954;28;20681;-77
2022/07/28 08:29:36;;;;;;;10.65;8.65;;;;;;;27.09;63.23;94868.75;5011565;28;20168;-78
2022/07/28 08:32:02;;;;;;;10.13;7.93;;;;;;;26.96;62.98;94843.47;5012370;28;20184;-78
2022/07/28 08:34:29;;;;;;;10.32;8.32;;;;;;;27.10;62.60;94874.97;5012818;28;20579;-79
2022/07/28 08:36:54;;;;;;;10.60;8.30;;;;;;;27.08;61.32;94877.97;5012492;28;20251;-77
2022/07/28 08:39:20;;;;;;;13.00;8.70;;;;;;;27.02;61.44;94884.66;5011939;28;20168;-78
2022/07/28 08:42:04;;;;;;;12.13;9.40;;;;;;;26.96;63.25;94875.91;5012283;28;20172;-78
2022/07/28 08:44:52;;;;;;;12.70;10.57;;;;;;;27.00;63.47;94871.44;5012198;28;20172;-77
2022/07/28 08:47:19;;;;;;;12.75;10.35;;;;;;;27.06;64.38;94874.03;5011661;28;20234;-78
2022/07/28 08:49:47;;;;;;;11.05;8.43;;;;;;;27.13;63.59;94879.75;5011669;28;20660;-77
2022/07/28 08:52:13;;;;;;;14.82;8.32;;;;;;;27.23;60.92;94877.56;5011884;28;20235;-79
2022/07/28 08:54:49;;;;;;;9.65;7.20;;;;;;;27.26;60.07;94885.03;5011533;28;20187;-76
2022/07/28 08:57:43;;;;;;;16.55;10.35;;;;;;;27.17;61.08;94864.47;5010556;28;20180;-78
2022/07/28 09:00:10;;;;;;;11.20;8.48;;;;;;;27.17;61.85;94891.53;4999284;28;20192;-77
2022/07/28 09:02:40;;;;;;;14.13;8.90;;;;;;;27.22;62.32;94880.56;5011921;28;20168;-77
2022/07/28 09:05:06;;;;;;;15.30;12.13;;;;;;;27.33;62.33;94881.88;4993947;28;20570;-76
2022/07/28 09:07:36;;;;;;;12.70;10.45;;;;;;;27.30;60.26;94885.19;5010686;28;20197;-78
2022/07/28 09:10:04;;;;;;;11.05;8.88;;;;;;;27.33;61.17;94888.06;5011081;28;20173;-76
2022/07/28 09:12:32;;;;;;;17.35;10.07;;;;;;;27.42;61.97;94894.28;5011130;28;20188;-77
2022/07/28 09:15:01;;;;;;;9.93;8.52;;;;;;;27.46;59.39;94899.06;4993113;28;20296;-75
2022/07/28 09:17:27;;;;;;;11.32;8.82;;;;;;;27.39;59.94;94894.13;5010866;28;20260;-75
2022/07/28 09:19:52;;;;;;;14.02;9.32;;;;;;;27.41;60.56;94895.41;5008557;28;20256;-75
2022/07/28 09:22:17;;;;;;;18.63;10.13;;;;;;;27.34;61.16;94886.94;5010779;28;20164;-75
2022/07/28 09:24:46;;;;;;;11.57;9.18;;;;;;;27.24;61.07;94887.28;5010335;28;20530;-75
2022/07/28 09:27:13;;;;;;;12.63;9.88;;;;;;;27.07;61.93;94876.38;5010265;28;20279;-75
2022/07/28 09:29:43;;;;;;;10.90;8.80;;;;;;;27.05;61.25;94867.81;5009958;28;20195;-75
2022/07/28 09:32:12;;;;;;;10.73;8.35;;;;;;;27.08;62.76;94852.84;5009731;28;20322;-75
2022/07/28 09:34:43;;;;;;;13.60;9.88;;;;;;;27.31;60.74;94871.38;5011116;28;20164;-76
2022/07/28 09:37:19;;;;;;;12.63;9.77;;;;;;;27.14;61.48;94863.22;5010218;28;20171;-76
2022/07/28 09:39:46;;;;;;;13.80;9.82;;;;;;;27.21;61.14;94878.97;5006038;28;20681;-75
2022/07/28 09:42:12;;;;;;;16.83;10.82;;;;;;;27.18;61.56;94866.88;5010474;28;20273;-77
2022/07/28 09:44:38;;;;;;;17.30;10.85;;;;;;;27.13;61.67;94867.03;5010920;28;20196;-76
2022/07/28 09:47:26;;;;;;;15.63;10.93;;;;;;;26.99;62.63;94860.94;5010306;28;20207;-77
2022/07/28 09:49:52;;;;;;;22.30;12.25;;;;;;;26.82;62.10;94869.75;5009828;28;21044;-76
2022/07/28 09:52:32;;;;;;;14.85;10.10;;;;;;;26.79;64.14;94883.13;5010260;28;20263;-75
2022/07/28 09:55:08;;;;;;;16.40;10.48;;;;;;;27.11;63.08;94880.06;5010547;28;20173;-75
2022/07/28 09:57:37;;;;;;;14.80;10.82;;;;;;;27.52;65.14;94882.34;5010708;28;20637;-76
2022/07/28 10:00:08;;;;;;;14.73;10.38;;;;;;;27.97;62.52;94874.75;5010697;28;20179;-75
2022/07/28 10:02:34;;;;;;;14.50;11.20;;;;;;;28.35;61.52;94857.84;5009860;28;20263;-75
2022/07/28 10:05:00;;;;;;;17.48;12.10;;;;;;;28.13;58.56;94870.44;5010413;28;20252;-75
2022/07/28 10:07:29;;;;;;;17.80;11.70;;;;;;;28.25;57.81;94867.13;5010516;28;20610;-76
2022/07/28 10:10:00;;;;;;;17.10;10.75;;;;;;;28.48;58.78;94881.22;5010572;28;20604;-74
2022/07/28 10:12:29;;;;;;;17.48;12.15;;;;;;;28.50;59.18;94877.09;5014233;28;20176;-75
2022/07/28 10:14:58;;;;;;;17.23;11.13;;;;;;;28.47;57.28;94877.72;5013898;28;20223;-75
2022/07/28 10:17:31;;;;;;;14.35;10.32;;;;;;;28.66;58.32;94871.94;5014037;28;20165;-75
2022/07/28 10:20:03;;;;;;;13.95;9.40;;;;;;;28.56;55.57;94871.47;5014058;28;20172;-75
2022/07/28 10:22:33;;;;;;;12.95;9.73;;;;;;;28.64;58.94;94847.06;5013147;28;20238;-75
2022/07/28 10:25:06;;;;;;;11.75;8.43;;;;;;;28.66;53.02;94861.09;5013856;28;20589;-74
2022/07/28 10:27:32;;;;;;;11.35;8.32;;;;;;;28.72;54.96;94865.19;5013246;28;20579;-75
2022/07/28 10:30:00;;;;;;;9.95;7.50;;;;;;;28.64;52.72;94863.31;5011616;28;20672;-75
2022/07/28 10:32:28;;;;;;;11.07;8.07;;;;;;;28.38;52.16;94857.19;5011942;28;20172;-75
2022/07/28 10:35:03;;;;;;;11.50;7.82;;;;;;;28.23;52.45;94855.00;5012522;28;20177;-75
2022/07/28 10:37:32;;;;;;;7.97;7.00;;;;;;;28.17;53.10;94856.28;5012861;28;20825;-75
2022/07/28 10:40:04;;;;;;;10.85;7.70;;;;;;;28.08;53.33;94851.66;5012463;28;20168;-75
2022/07/28 10:42:30;;;;;;;10.55;8.15;;;;;;;28.11;53.89;94861.03;5012424;28;20184;-75
2022/07/28 10:44:57;;;;;;;10.50;7.68;;;;;;;28.25;54.81;94852.78;5013412;28;20231;-75
2022/07/28 10:47:25;;;;;;;11.18;8.30;;;;;;;28.43;53.84;94848.91;5013229;28;20587;-75
2022/07/28 10:49:51;;;;;;;12.75;7.70;;;;;;;28.68;53.00;94842.59;5013337;28;20176;-75
2022/07/28 10:52:18;;;;;;;9.10;7.68;;;;;;;28.88;53.35;94844.63;5013226;28;20172;-75
2022/07/28 10:55:01;;;;;;;9.75;7.65;;;;;;;29.14;52.92;94844.47;5013262;28;20180;-75
2022/07/28 10:57:30;;;;;;;13.43;8.43;;;;;;;28.84;51.70;94830.13;5013185;28;20575;-75
2022/07/28 11:00:19;;;;;;;9.40;8.18;;;;;;;28.76;51.46;94830.13;5013199;28;20200;-75
2022/07/28 11:02:51;;;;;;;11.07;7.85;;;;;;;28.75;51.27;94826.63;5013074;28;20164;-75
2022/07/28 11:05:28;;;;;;;10.25;9.07;;;;;;;28.49;51.22;94824.00;5012821;28;20559;-75
2022/07/28 11:07:55;;;;;;;13.68;8.43;;;;;;;28.42;51.60;94831.06;5012878;28;20200;-75
2022/07/28 11:10:21;;;;;;;10.38;7.35;;;;;;;28.49;50.95;94818.59;5012862;28;20174;-75
2022/07/28 11:12:52;;;;;;;9.48;7.53;;;;;;;28.72;50.09;94804.78;5012902;28;20676;-75
2022/07/28 11:15:27;;;;;;;11.15;7.70;;;;;;;29.01;49.25;94815.66;5012907;28;20228;-75
2022/07/28 11:18:18;;;;;;;9.27;7.90;;;;;;;29.29;50.12;94813.25;5012769;28;20657;-75
2022/07/28 11:20:55;;;;;;;9.68;7.70;;;;;;;29.44;48.97;94815.41;5012177;28;20195;-75
2022/07/28 11:23:42;;;;;;;11.82;8.00;;;;;;;29.42;50.31;94789.72;5012793;28;20283;-75
2022/07/28 11:26:22;;;;;;;8.80;7.25;;;;;;;29.68;48.49;94786.78;5012677;28;20196;-75
2022/07/28 11:28:56;;;;;;;9.50;7.65;;;;;;;29.71;45.54;94783.41;5012492;28;20561;-75
2022/07/28 11:31:43;;;;;;;10.75;7.70;;;;;;;29.79;47.56;94779.84;5012916;28;20671;-75